Warwick, Canada
Current Conditions -  °F | °C
As of 5:22 PM on Sunday 23 Nov 2014 (Local Time) from CYSC Reporting Station
Haze Haze  
Wind Chill: 37°   Ceiling: 1600
Heat Index: 37°   Visibility: 1mi
Dew Point: 37°   Wind: 2mph
Humidity: 100%   Direction: NA
Pressure: 30.05"   Gusts: NA
Location:  45.95°N, 71.98°W
Report Text: CYSC 232222Z AUTO VRB02KT 1SM BR OVC016 03/03 A3005 RMK SLP186
Loading
Personal Weather Stations






























Interactive Weather Map New forecast layout! Learn more

10-Day Weather Forecast

Advertisements
Track Severe Weather on mobile